createdAt,value
2022-11-15T00:01:35.090Z,100545.54
2022-11-15T00:04:07.852Z,100556.76
2022-11-15T00:06:39.561Z,100559.84
2022-11-15T00:09:11.397Z,100559.13
2022-11-15T00:11:43.280Z,100555.80
2022-11-15T00:14:15.610Z,100556.92
2022-11-15T00:16:47.480Z,100551.66
2022-11-15T00:19:19.278Z,100546.38
2022-11-15T00:21:50.813Z,100542.86
2022-11-15T00:24:22.518Z,100539.05
2022-11-15T00:26:54.230Z,100542.29
2022-11-15T00:32:37.098Z,100531.02
2022-11-15T00:35:10.145Z,100535.76
2022-11-15T00:37:41.964Z,100526.73
2022-11-15T00:40:15.672Z,100519.70
2022-11-15T00:42:47.350Z,100519.39
2022-11-15T00:45:19.295Z,100515.97
2022-11-15T00:47:50.948Z,100513.26
2022-11-15T00:50:23.074Z,100511.89
2022-11-15T00:52:54.729Z,100508.29
2022-11-15T00:55:26.807Z,100506.40
2022-11-15T00:58:06.987Z,100507.23
2022-11-15T01:00:47.875Z,100508.73
2022-11-15T01:03:28.355Z,100506.27
2022-11-15T01:06:03.261Z,100493.64
2022-11-15T01:08:35.184Z,100488.18
2022-11-15T01:11:08.198Z,100485.80
2022-11-15T01:13:42.260Z,100487.98
2022-11-15T01:16:17.968Z,100477.05
2022-11-15T01:18:49.915Z,100473.20
2022-11-15T01:21:22.887Z,100476.23
2022-11-15T01:23:57.779Z,100469.34
2022-11-15T01:26:29.881Z,100469.73
2022-11-15T01:29:01.697Z,100462.77
2022-11-15T01:31:33.825Z,100456.04
2022-11-15T01:34:05.635Z,100452.98
2022-11-15T01:36:37.538Z,100447.83
2022-11-15T01:39:10.919Z,100445.82
2022-11-15T01:41:42.833Z,100444.30
2022-11-15T01:44:49.364Z,100440.99
2022-11-15T01:47:25.143Z,100439.11
2022-11-15T01:50:02.445Z,100438.91
2022-11-15T01:52:37.756Z,100436.05
2022-11-15T01:55:12.853Z,100430.20
2022-11-15T01:57:46.962Z,100425.42
2022-11-15T02:00:20.027Z,100428.02
2022-11-15T02:02:52.040Z,100426.80
2022-11-15T02:05:24.205Z,100422.74
2022-11-15T02:07:56.415Z,100418.17
2022-11-15T02:10:32.006Z,100412.98
2022-11-15T02:13:04.852Z,100409.55
2022-11-15T02:15:43.298Z,100405.31
2022-11-15T02:18:26.836Z,100400.42
2022-11-15T02:21:14.880Z,100409.41
2022-11-15T02:24:26.211Z,100406.55
2022-11-15T02:27:19.268Z,100404.38
2022-11-15T02:30:09.784Z,100402.64
2022-11-15T02:32:47.521Z,100404.11
2022-11-15T02:35:27.054Z,100400.64
2022-11-15T02:38:02.584Z,100399.35
2022-11-15T02:40:41.983Z,100396.78
2022-11-15T02:43:36.226Z,100397.45
2022-11-15T02:46:15.864Z,100394.75
2022-11-15T02:48:48.303Z,100391.60
2022-11-15T02:51:21.531Z,100388.16
2022-11-15T02:53:53.402Z,100387.55
2022-11-15T02:56:25.449Z,100388.54
2022-11-15T02:59:19.524Z,100388.36
2022-11-15T03:02:07.608Z,100382.45
2022-11-15T03:04:46.989Z,100382.15
2022-11-15T03:07:28.315Z,100373.84
2022-11-15T03:10:08.909Z,100377.92
2022-11-15T03:12:46.602Z,100372.30
2022-11-15T03:15:24.188Z,100374.50
2022-11-15T03:18:02.527Z,100369.29
2022-11-15T03:20:37.547Z,100367.34
2022-11-15T03:23:12.849Z,100371.65
2022-11-15T03:25:48.204Z,100366.31
2022-11-15T03:28:26.752Z,100358.44
2022-11-15T03:31:01.935Z,100353.66
2022-11-15T03:33:34.689Z,100350.56
2022-11-15T03:36:07.368Z,100351.98
2022-11-15T03:38:40.999Z,100347.10
2022-11-15T03:41:19.274Z,100341.95
2022-11-15T03:43:55.805Z,100338.85
2022-11-15T03:46:32.141Z,100337.04
2022-11-15T03:49:11.261Z,100338.48
2022-11-15T03:51:43.792Z,100337.89
2022-11-15T03:54:16.888Z,100338.98
2022-11-15T03:56:48.739Z,100332.40
2022-11-15T03:59:20.608Z,100336.42
2022-11-15T04:01:52.539Z,100327.07
2022-11-15T04:04:24.514Z,100323.77
2022-11-15T04:06:56.333Z,100322.16
2022-11-15T04:09:28.729Z,100320.56
2022-11-15T04:12:00.807Z,100316.66
2022-11-15T04:14:32.508Z,100317.38
2022-11-15T04:17:04.308Z,100315.80
2022-11-15T04:19:53.705Z,100306.50
2022-11-15T04:22:42.916Z,100312.30
2022-11-15T04:25:27.242Z,100307.39
2022-11-15T04:28:10.326Z,100303.80
2022-11-15T04:30:52.005Z,100300.21
2022-11-15T04:33:24.017Z,100293.68
2022-11-15T04:36:13.244Z,100303.56
2022-11-15T04:38:44.995Z,100289.63
2022-11-15T04:41:16.752Z,100296.70
2022-11-15T04:43:48.672Z,100297.84
2022-11-15T04:46:20.656Z,100295.29
2022-11-15T04:48:58.032Z,100295.16
2022-11-15T04:51:30.821Z,100292.44
2022-11-15T04:54:02.568Z,100285.40
2022-11-15T04:56:34.536Z,100283.08
2022-11-15T04:59:06.542Z,100276.19
2022-11-15T05:01:43.580Z,100275.88
2022-11-15T05:04:22.466Z,100262.70
2022-11-15T05:06:54.974Z,100264.68
2022-11-15T05:09:26.795Z,100262.92
2022-11-15T05:11:58.547Z,100261.77
2022-11-15T05:14:30.850Z,100254.46
2022-11-15T05:17:02.912Z,100256.98
2022-11-15T05:19:35.468Z,100258.84
2022-11-15T05:22:07.126Z,100255.64
2022-11-15T05:24:38.946Z,100261.34
2022-11-15T05:27:10.628Z,100257.70
2022-11-15T05:29:42.333Z,100258.73
2022-11-15T05:32:14.677Z,100262.77
2022-11-15T05:34:47.126Z,100262.58
2022-11-15T05:37:19.308Z,100257.95
2022-11-15T05:39:51.657Z,100255.96
2022-11-15T05:42:23.448Z,100257.21
2022-11-15T05:44:55.581Z,100254.58
2022-11-15T05:47:30.496Z,100259.11
2022-11-15T05:50:02.558Z,100258.68
2022-11-15T05:52:38.282Z,100253.25
2022-11-15T05:55:12.398Z,100258.45
2022-11-15T05:57:44.517Z,100255.83
2022-11-15T06:00:18.123Z,100248.55
2022-11-15T06:02:50.014Z,100249.58
2022-11-15T06:05:21.820Z,100255.92
2022-11-15T06:07:53.677Z,100256.85
2022-11-15T06:10:25.518Z,100253.30
2022-11-15T06:13:03.037Z,100245.30
2022-11-15T06:15:36.380Z,100241.50
2022-11-15T06:18:08.317Z,100253.37
2022-11-15T06:20:39.840Z,100258.71
2022-11-15T06:23:11.424Z,100261.23
2022-11-15T06:25:43.084Z,100260.14
2022-11-15T06:28:14.658Z,100259.08
2022-11-15T06:30:50.524Z,100255.48
2022-11-15T06:33:24.743Z,100255.83
2022-11-15T06:35:56.395Z,100262.57
2022-11-15T06:38:28.918Z,100260.99
2022-11-15T06:41:06.271Z,100257.17
2022-11-15T06:43:39.070Z,100253.88
2022-11-15T06:46:11.428Z,100256.20
2022-11-15T06:48:43.113Z,100254.79
2022-11-15T06:51:14.561Z,100259.49
2022-11-15T06:53:46.017Z,100258.30
2022-11-15T06:56:17.599Z,100259.56
2022-11-15T06:58:49.051Z,100259.32
2022-11-15T07:01:20.775Z,100257.83
2022-11-15T07:03:52.526Z,100255.95
2022-11-15T07:06:24.115Z,100255.83
2022-11-15T07:08:56.750Z,100253.14
2022-11-15T07:11:28.565Z,100247.37
2022-11-15T07:14:00.617Z,100247.20
2022-11-15T07:16:32.631Z,100245.52
2022-11-15T07:19:04.740Z,100246.25
2022-11-15T07:21:37.082Z,100252.63
2022-11-15T07:24:10.103Z,100249.52
2022-11-15T07:26:42.111Z,100251.64
2022-11-15T07:29:14.428Z,100246.45
2022-11-15T07:31:46.785Z,100249.56
2022-11-15T07:34:18.561Z,100245.69
2022-11-15T07:36:50.991Z,100250.73
2022-11-15T07:39:22.602Z,100254.23
2022-11-15T07:42:16.018Z,100252.45
2022-11-15T07:44:47.783Z,100248.14
2022-11-15T07:47:19.401Z,100243.86
2022-11-15T07:49:51.223Z,100241.52
2022-11-15T07:52:22.791Z,100253.09
2022-11-15T07:54:54.653Z,100243.59
2022-11-15T07:57:26.301Z,100246.65
2022-11-15T07:59:57.952Z,100244.69
2022-11-15T08:02:30.683Z,100238.21
2022-11-15T08:05:02.477Z,100239.45
2022-11-15T08:07:35.216Z,100238.02
2022-11-15T08:10:09.749Z,100229.84
2022-11-15T08:12:41.551Z,100231.12
2022-11-15T08:15:14.343Z,100232.73
2022-11-15T08:17:46.193Z,100231.08
2022-11-15T08:20:18.918Z,100222.02
2022-11-15T08:22:50.516Z,100214.45
2022-11-15T08:25:22.181Z,100210.33
2022-11-15T08:27:55.759Z,100213.73
2022-11-15T08:30:27.966Z,100209.19
2022-11-15T08:33:01.228Z,100207.48
2022-11-15T08:35:33.429Z,100205.73
2022-11-15T08:38:06.014Z,100206.36
2022-11-15T08:40:37.749Z,100204.38
2022-11-15T08:43:10.088Z,100204.09
2022-11-15T08:45:43.063Z,100203.92
2022-11-15T08:48:14.701Z,100204.27
2022-11-15T08:50:46.420Z,100204.09
2022-11-15T08:53:18.018Z,100197.99
2022-11-15T08:55:49.732Z,100201.18
2022-11-15T08:58:21.583Z,100199.72
2022-11-15T09:00:53.585Z,100200.31
2022-11-15T09:03:25.183Z,100196.88
2022-11-15T09:06:01.505Z,100192.45
2022-11-15T09:08:50.577Z,100195.38
2022-11-15T09:11:23.458Z,100195.59
2022-11-15T09:13:55.535Z,100193.79
2022-11-15T09:16:27.023Z,100187.96
2022-11-15T09:18:58.575Z,100188.15
2022-11-15T09:21:31.096Z,100187.17
2022-11-15T09:24:04.082Z,100185.30
2022-11-15T09:26:35.727Z,100179.64
2022-11-15T09:29:07.371Z,100179.44
2022-11-15T09:31:39.188Z,100169.73
2022-11-15T09:34:10.847Z,100163.15
2022-11-15T09:36:43.652Z,100162.18
2022-11-15T09:39:15.708Z,100160.28
2022-11-15T09:42:02.790Z,100159.06
2022-11-15T09:45:02.508Z,100157.29
2022-11-15T09:47:58.654Z,100158.73
2022-11-15T09:50:39.305Z,100159.56
2022-11-15T09:53:41.498Z,100153.52
2022-11-15T09:56:20.539Z,100143.04
2022-11-15T09:59:00.612Z,100138.34
2022-11-15T10:01:44.471Z,100140.61
2022-11-15T10:04:16.896Z,100145.85
2022-11-15T10:06:56.653Z,100137.33
2022-11-15T10:09:31.896Z,100136.48
2022-11-15T10:12:03.681Z,100130.21
2022-11-15T10:14:35.488Z,100125.14
2022-11-15T10:17:31.075Z,100123.39
2022-11-15T10:20:12.491Z,100114.58
2022-11-15T10:22:49.005Z,100114.42
2022-11-15T10:25:27.315Z,100110.77
2022-11-15T10:28:01.816Z,100103.95
2022-11-15T10:30:39.557Z,100103.20
2022-11-15T10:33:25.088Z,100106.39
2022-11-15T10:36:19.398Z,100109.60
2022-11-15T10:39:01.918Z,100104.02
2022-11-15T10:41:40.999Z,100102.63
2022-11-15T10:44:31.288Z,100099.34
2022-11-15T10:47:27.414Z,100093.83
2022-11-15T10:50:02.201Z,100087.60
2022-11-15T10:52:33.033Z,100088.36
2022-11-15T10:55:22.561Z,100083.30
2022-11-15T10:57:57.400Z,100079.23
2022-11-15T11:00:32.978Z,100078.75
2022-11-15T11:03:08.325Z,100073.83
2022-11-15T11:05:43.179Z,100076.67
2022-11-15T11:08:31.182Z,100069.43
2022-11-15T11:11:04.701Z,100062.16
2022-11-15T11:13:38.889Z,100060.28
2022-11-15T11:16:44.290Z,100060.61
2022-11-15T11:19:58.880Z,100049.96
2022-11-15T11:22:39.803Z,100046.64
2022-11-15T11:25:28.573Z,100045.81
2022-11-15T11:28:17.379Z,100042.48
2022-11-15T11:31:00.964Z,100031.98
2022-11-15T11:33:38.727Z,100025.05
2022-11-15T11:36:22.845Z,100021.52
2022-11-15T11:39:08.603Z,100016.92
2022-11-15T11:41:52.465Z,100012.70
2022-11-15T11:44:35.096Z,100013.49
2022-11-15T11:47:13.311Z,100009.02
2022-11-15T11:49:52.290Z,100002.16
2022-11-15T11:52:29.658Z,100001.20
2022-11-15T11:55:08.655Z,100003.27
2022-11-15T11:57:46.695Z,99995.82
2022-11-15T12:00:25.130Z,99994.88
2022-11-15T12:03:07.581Z,99994.81
2022-11-15T12:05:42.994Z,99994.05
2022-11-15T12:08:28.491Z,99996.59
2022-11-15T12:11:08.941Z,99989.51
2022-11-15T12:13:41.141Z,99987.77
2022-11-15T12:16:19.152Z,99982.77
2022-11-15T12:18:53.956Z,99981.02
2022-11-15T12:21:29.946Z,99983.29
2022-11-15T12:24:07.475Z,99988.48
2022-11-15T12:26:44.262Z,99988.80
2022-11-15T12:29:22.351Z,99985.98
2022-11-15T12:31:58.285Z,99982.44
2022-11-15T12:34:42.980Z,99977.63
2022-11-15T12:37:49.915Z,99974.73
2022-11-15T12:40:39.190Z,99969.50
2022-11-15T12:43:43.683Z,99970.02
2022-11-15T12:46:25.949Z,99977.21
2022-11-15T12:49:02.340Z,99968.88
2022-11-15T12:52:10.377Z,99965.78
2022-11-15T12:55:29.843Z,99968.81
2022-11-15T12:58:44.238Z,99959.87
2022-11-15T13:01:52.645Z,99961.30
2022-11-15T13:04:33.446Z,99960.98
2022-11-15T13:07:08.986Z,99953.92
2022-11-15T13:09:58.103Z,99950.50
2022-11-15T13:12:57.998Z,99942.60
2022-11-15T13:15:43.268Z,99946.83
2022-11-15T13:18:34.369Z,99941.64
2022-11-15T13:21:30.333Z,99937.05
2022-11-15T13:24:01.945Z,99930.20
2022-11-15T13:26:33.616Z,99930.97
2022-11-15T13:29:05.892Z,99927.90
2022-11-15T13:31:44.856Z,99928.10
2022-11-15T13:34:53.243Z,99922.55
2022-11-15T13:37:35.723Z,99920.06
2022-11-15T13:40:32.624Z,99915.02
2022-11-15T13:43:16.709Z,99911.50
2022-11-15T13:45:48.171Z,99909.70
2022-11-15T13:48:19.605Z,99907.29
2022-11-15T13:50:51.224Z,99899.41
2022-11-15T13:53:22.836Z,99898.89
2022-11-15T13:55:58.184Z,99903.55
2022-11-15T13:58:29.970Z,99900.76
2022-11-15T14:01:06.408Z,99900.54
2022-11-15T14:03:49.560Z,99895.48
2022-11-15T14:06:23.296Z,99891.67
2022-11-15T14:09:18.520Z,99899.99
2022-11-15T14:11:58.903Z,99905.55
2022-11-15T14:14:31.779Z,99904.23
2022-11-15T14:17:04.681Z,99906.43
2022-11-15T14:19:41.785Z,99907.52
2022-11-15T14:22:18.680Z,99905.30
2022-11-15T14:25:07.736Z,99904.32
2022-11-15T14:27:39.379Z,99906.99
2022-11-15T14:30:17.745Z,99899.69
2022-11-15T14:32:50.962Z,99899.24
2022-11-15T14:35:24.924Z,99899.10
2022-11-15T14:37:56.706Z,99901.61
2022-11-15T14:40:28.570Z,99905.73
2022-11-15T14:43:00.242Z,99904.95
2022-11-15T14:45:32.320Z,99902.23
2022-11-15T14:48:03.751Z,99899.52
2022-11-15T14:50:37.344Z,99902.43
2022-11-15T14:53:09.915Z,99895.21
2022-11-15T14:55:41.847Z,99890.23
2022-11-15T14:58:13.409Z,99895.54
2022-11-15T15:00:45.657Z,99900.68
2022-11-15T15:03:17.257Z,99898.70
2022-11-15T15:05:49.216Z,99894.41
2022-11-15T15:08:20.932Z,99896.13
2022-11-15T15:10:52.512Z,99896.64
2022-11-15T15:13:28.376Z,99890.56
2022-11-15T15:16:00.200Z,99898.55
2022-11-15T15:18:32.735Z,99892.36
2022-11-15T15:21:08.415Z,99887.95
2022-11-15T15:23:39.931Z,99886.13
2022-11-15T15:26:12.020Z,99881.63
2022-11-15T15:28:44.580Z,99881.10
2022-11-15T15:31:16.394Z,99884.73
2022-11-15T15:33:48.200Z,99883.97
2022-11-15T15:36:22.380Z,99886.95
2022-11-15T15:38:54.360Z,99884.02
2022-11-15T15:41:25.976Z,99886.52
2022-11-15T15:44:00.811Z,99884.88
2022-11-15T15:46:30.516Z,99880.73
2022-11-15T15:49:02.572Z,99874.09
2022-11-15T15:51:37.874Z,99872.48
2022-11-15T15:54:10.378Z,99876.30
2022-11-15T15:56:42.364Z,99880.64
2022-11-15T15:59:14.407Z,99878.04
2022-11-15T16:01:47.578Z,99878.83
2022-11-15T16:04:19.775Z,99880.16
2022-11-15T16:06:53.942Z,99873.47
2022-11-15T16:09:46.495Z,99871.23
2022-11-15T16:12:18.823Z,99878.19
2022-11-15T16:14:51.584Z,99880.22
2022-11-15T16:17:30.094Z,99882.09
2022-11-15T16:20:04.988Z,99873.91
2022-11-15T16:22:36.751Z,99869.53
2022-11-15T16:25:09.902Z,99879.27
2022-11-15T16:27:46.196Z,99878.48
2022-11-15T16:30:21.288Z,99875.49
2022-11-15T16:32:54.869Z,99882.61
2022-11-15T16:35:26.807Z,99881.42
2022-11-15T16:37:59.153Z,99885.80
2022-11-15T16:40:33.322Z,99882.02
2022-11-15T16:43:07.474Z,99881.94
2022-11-15T16:45:40.124Z,99875.06
2022-11-15T16:48:25.655Z,99874.00
2022-11-15T16:50:59.620Z,99876.30
2022-11-15T16:53:31.442Z,99873.44
2022-11-15T16:56:03.139Z,99874.72
2022-11-15T16:58:35.515Z,99872.94
2022-11-15T17:01:09.433Z,99875.70
2022-11-15T17:03:41.112Z,99873.21
2022-11-15T17:06:15.149Z,99866.66
2022-11-15T17:08:47.012Z,99864.36
2022-11-15T17:11:20.837Z,99863.98
2022-11-15T17:13:59.543Z,99858.82
2022-11-15T17:16:31.905Z,99857.63
2022-11-15T17:19:04.101Z,99858.05
2022-11-15T17:21:35.823Z,99859.28
2022-11-15T17:24:09.284Z,99854.38
2022-11-15T17:26:43.206Z,99852.35
2022-11-15T17:29:15.520Z,99849.02
2022-11-15T17:31:49.761Z,99847.47
2022-11-15T17:34:22.410Z,99844.18
2022-11-15T17:36:54.688Z,99842.98
2022-11-15T17:39:26.973Z,99845.62
2022-11-15T17:41:59.531Z,99847.49
2022-11-15T17:44:31.841Z,99849.50
2022-11-15T17:47:03.950Z,99847.80
2022-11-15T17:49:39.781Z,99846.47
2022-11-15T17:52:11.912Z,99847.48
2022-11-15T17:54:43.943Z,99848.47
2022-11-15T17:57:15.886Z,99844.30
2022-11-15T17:59:51.236Z,99843.92
2022-11-15T18:02:23.303Z,99840.86
2022-11-15T18:04:55.054Z,99836.61
2022-11-15T18:07:27.136Z,99835.10
2022-11-15T18:10:00.661Z,99830.90
2022-11-15T18:12:32.790Z,99828.44
2022-11-15T18:15:04.336Z,99830.42
2022-11-15T18:17:37.484Z,99823.00
2022-11-15T18:20:10.944Z,99821.88
2022-11-15T18:22:42.712Z,99821.52
2022-11-15T18:25:19.207Z,99821.86
2022-11-15T18:27:55.576Z,99819.15
2022-11-15T18:30:27.847Z,99812.02
2022-11-15T18:32:59.959Z,99810.30
2022-11-15T18:35:31.651Z,99814.67
2022-11-15T18:38:05.826Z,99811.45
2022-11-15T18:40:37.614Z,99807.35
2022-11-15T18:43:09.727Z,99803.19
2022-11-15T18:45:41.416Z,99807.80
2022-11-15T18:48:13.005Z,99812.02
2022-11-15T18:50:44.802Z,99816.61
2022-11-15T18:53:17.758Z,99819.02
2022-11-15T18:55:49.471Z,99820.50
2022-11-15T18:58:21.434Z,99822.08
2022-11-15T19:00:52.979Z,99824.27
2022-11-15T19:03:24.884Z,99828.69
2022-11-15T19:06:02.841Z,99827.52
2022-11-15T19:08:35.650Z,99825.07
2022-11-15T19:11:10.025Z,99820.02
2022-11-15T19:13:45.944Z,99817.35
2022-11-15T19:16:18.833Z,99810.89
2022-11-15T19:18:54.432Z,99814.03
2022-11-15T19:21:27.079Z,99812.75
2022-11-15T19:23:58.891Z,99810.52
2022-11-15T19:26:31.654Z,99813.30
2022-11-15T19:29:07.851Z,99819.76
2022-11-15T19:31:40.849Z,99819.59
2022-11-15T19:34:13.631Z,99820.88
2022-11-15T19:36:46.647Z,99819.01
2022-11-15T19:39:19.610Z,99814.73
2022-11-15T19:41:52.287Z,99821.74
2022-11-15T19:44:26.921Z,99820.35
2022-11-15T19:46:58.902Z,99819.20
2022-11-15T19:49:33.886Z,99820.30
2022-11-15T19:52:05.795Z,99822.77
2022-11-15T19:54:37.899Z,99826.28
2022-11-15T19:57:09.676Z,99816.98
2022-11-15T19:59:41.514Z,99811.51
2022-11-15T20:02:18.583Z,99808.86
2022-11-15T20:04:51.500Z,99808.64
2022-11-15T20:07:24.019Z,99802.35
2022-11-15T20:09:55.858Z,99799.12
2022-11-15T20:12:27.276Z,99800.12
2022-11-15T20:15:02.884Z,99796.66
2022-11-15T20:17:34.494Z,99802.88
2022-11-15T20:20:07.141Z,99796.49
2022-11-15T20:22:38.794Z,99793.57
2022-11-15T20:25:11.984Z,99795.86
2022-11-15T20:27:43.497Z,99788.05
2022-11-15T20:30:16.451Z,99791.62
2022-11-15T20:32:48.292Z,99786.32
2022-11-15T20:35:21.384Z,99785.68
2022-11-15T20:37:53.543Z,99784.65
2022-11-15T20:40:25.213Z,99786.48
2022-11-15T20:42:57.710Z,99786.88
2022-11-15T20:45:29.452Z,99787.84
2022-11-15T20:48:01.846Z,99785.19
2022-11-15T20:50:42.694Z,99783.27
2022-11-15T20:53:17.099Z,99776.69
2022-11-15T20:55:51.273Z,99775.47
2022-11-15T20:58:23.348Z,99777.55
2022-11-15T21:01:01.200Z,99772.98
2022-11-15T21:03:33.425Z,99772.61
2022-11-15T21:06:05.235Z,99774.47
2022-11-15T21:08:50.927Z,99771.86
2022-11-15T21:11:40.168Z,99769.79
2022-11-15T21:14:11.672Z,99769.00
2022-11-15T21:16:43.243Z,99771.59
2022-11-15T21:19:15.386Z,99772.77
2022-11-15T21:21:46.820Z,99769.64
2022-11-15T21:24:18.445Z,99765.64
2022-11-15T21:26:50.111Z,99765.83
2022-11-15T21:29:21.649Z,99760.86
2022-11-15T21:31:54.270Z,99759.67
2022-11-15T21:34:26.061Z,99763.61
2022-11-15T21:36:57.402Z,99759.34
2022-11-15T21:39:28.961Z,99758.50
2022-11-15T21:42:00.503Z,99758.40
2022-11-15T21:44:32.595Z,99763.12
2022-11-15T21:47:04.291Z,99767.43
2022-11-15T21:49:35.902Z,99761.56
2022-11-15T21:52:07.682Z,99755.64
2022-11-15T21:54:41.830Z,99750.21
2022-11-15T21:57:13.670Z,99752.43
2022-11-15T21:59:58.956Z,99752.55
2022-11-15T22:02:28.647Z,99753.22
2022-11-15T22:05:00.254Z,99756.91
2022-11-15T22:07:31.908Z,99752.27
2022-11-15T22:10:05.098Z,99747.73
2022-11-15T22:12:36.710Z,99740.86
2022-11-15T22:15:09.427Z,99734.24
2022-11-15T22:17:59.468Z,99732.95
2022-11-15T22:20:44.571Z,99731.44
2022-11-15T22:23:16.883Z,99730.93
2022-11-15T22:25:48.724Z,99724.52
2022-11-15T22:28:20.967Z,99714.23
2022-11-15T22:30:54.251Z,99709.56
2022-11-15T22:33:27.416Z,99708.55
2022-11-15T22:35:59.813Z,99702.92
2022-11-15T22:38:31.898Z,99699.70
2022-11-15T22:41:04.180Z,99696.23
2022-11-15T22:43:36.316Z,99703.67
2022-11-15T22:46:08.925Z,99707.90
2022-11-15T22:48:41.263Z,99703.64
2022-11-15T22:51:12.945Z,99703.08
2022-11-15T22:53:44.623Z,99706.47
2022-11-15T22:56:20.288Z,99707.60
2022-11-15T22:58:52.180Z,99706.53
2022-11-15T23:01:25.147Z,99707.95
2022-11-15T23:03:57.001Z,99709.55
2022-11-15T23:06:28.583Z,99707.23
2022-11-15T23:09:00.386Z,99701.72
2022-11-15T23:11:49.036Z,99706.05
2022-11-15T23:14:20.987Z,99709.92
2022-11-15T23:16:52.975Z,99710.20
2022-11-15T23:19:25.063Z,99708.18
2022-11-15T23:22:14.030Z,99701.68
2022-11-15T23:24:45.636Z,99687.30
2022-11-15T23:27:20.363Z,99685.59
2022-11-15T23:30:09.489Z,99678.66
2022-11-15T23:32:58.334Z,99676.67
2022-11-15T23:35:30.100Z,99682.70
2022-11-15T23:38:01.900Z,99685.30
2022-11-15T23:40:33.733Z,99678.89
2022-11-15T23:43:06.586Z,99674.11
2022-11-15T23:45:41.149Z,99675.70
2022-11-15T23:48:13.549Z,99673.45
2022-11-15T23:50:47.824Z,99676.36
2022-11-15T23:53:19.365Z,99675.11
2022-11-15T23:55:59.845Z,99669.92
2022-11-15T23:58:32.025Z,99672.73
